Terminal Aerodrome Forecast
Issued by NWS

Home | Current Version | Previous Version | Text Only | Print | Product List | Glossary On
Versions: 1 2 3 4 5 6 7 8 9 10 11 12 13 14 15 16 17 18
000
FTUS44 KBMX 282300 RRA
TAFTOI
TAF
KTOI 282342Z 2900/2924 VRB05KT P6SM VCSH SCT007 OVC015
     FM290200 32007KT 4SM -SHRA BR OVC006
     FM290600 34005KT 2SM -RA BR OVC003
     FM291400 34004KT 3SM BR OVC004
     FM291700 34005KT P6SM OVC007=

USA.gov is the U.S. government's official web portal to all federal, state and local government web resources and services.